sensor_id;sensor_type;location;lat;lon;timestamp;P1;durP1;ratioP1;P2;durP2;ratioP2
74626;SDS011;63132;52.268;5.192;2023-11-21T00:00:01;46.08;;;19.40;;
74626;SDS011;63132;52.268;5.192;2023-11-21T00:02:27;44.80;;;20.38;;
74626;SDS011;63132;52.268;5.192;2023-11-21T00:04:53;59.72;;;23.10;;
74626;SDS011;63132;52.268;5.192;2023-11-21T00:07:18;54.47;;;20.45;;
74626;SDS011;63132;52.268;5.192;2023-11-21T00:09:44;99.80;;;25.35;;
74626;SDS011;63132;52.268;5.192;2023-11-21T00:12:09;57.53;;;24.17;;
74626;SDS011;63132;52.268;5.192;2023-11-21T00:14:35;82.63;;;23.07;;
74626;SDS011;63132;52.268;5.192;2023-11-21T00:17:01;56.83;;;22.58;;
74626;SDS011;63132;52.268;5.192;2023-11-21T00:19:27;90.63;;;22.48;;
74626;SDS011;63132;52.268;5.192;2023-11-21T00:21:53;98.13;;;23.77;;
74626;SDS011;63132;52.268;5.192;2023-11-21T00:24:18;103.70;;;24.17;;
74626;SDS011;63132;52.268;5.192;2023-11-21T00:26:43;70.80;;;23.47;;
74626;SDS011;63132;52.268;5.192;2023-11-21T00:29:09;67.60;;;23.58;;
74626;SDS011;63132;52.268;5.192;2023-11-21T00:31:35;99.03;;;26.33;;
74626;SDS011;63132;52.268;5.192;2023-11-21T00:34:04;66.97;;;21.65;;
74626;SDS011;63132;52.268;5.192;2023-11-21T00:36:30;70.53;;;20.85;;
74626;SDS011;63132;52.268;5.192;2023-11-21T00:38:58;52.17;;;20.98;;
74626;SDS011;63132;52.268;5.192;2023-11-21T00:41:24;42.10;;;19.95;;
74626;SDS011;63132;52.268;5.192;2023-11-21T00:43:52;47.38;;;20.58;;
74626;SDS011;63132;52.268;5.192;2023-11-21T00:46:17;50.30;;;21.23;;
74626;SDS011;63132;52.268;5.192;2023-11-21T00:48:42;47.17;;;20.37;;
74626;SDS011;63132;52.268;5.192;2023-11-21T00:51:08;41.63;;;20.57;;
74626;SDS011;63132;52.268;5.192;2023-11-21T00:53:33;44.53;;;20.05;;
74626;SDS011;63132;52.268;5.192;2023-11-21T00:55:59;43.15;;;20.52;;
74626;SDS011;63132;52.268;5.192;2023-11-21T00:58:24;39.75;;;17.48;;
74626;SDS011;63132;52.268;5.192;2023-11-21T01:00:50;39.38;;;18.50;;
74626;SDS011;63132;52.268;5.192;2023-11-21T01:03:16;32.33;;;17.55;;
74626;SDS011;63132;52.268;5.192;2023-11-21T01:05:41;39.35;;;16.95;;
74626;SDS011;63132;52.268;5.192;2023-11-21T01:08:06;32.97;;;18.13;;
74626;SDS011;63132;52.268;5.192;2023-11-21T01:10:32;37.93;;;18.63;;
74626;SDS011;63132;52.268;5.192;2023-11-21T01:12:59;36.10;;;16.70;;
74626;SDS011;63132;52.268;5.192;2023-11-21T01:15:25;33.63;;;17.15;;
74626;SDS011;63132;52.268;5.192;2023-11-21T01:17:51;36.50;;;17.67;;
74626;SDS011;63132;52.268;5.192;2023-11-21T01:20:16;30.25;;;16.45;;
74626;SDS011;63132;52.268;5.192;2023-11-21T01:22:42;30.95;;;15.80;;
74626;SDS011;63132;52.268;5.192;2023-11-21T01:25:08;35.03;;;16.48;;
74626;SDS011;63132;52.268;5.192;2023-11-21T01:27:34;37.38;;;18.67;;
74626;SDS011;63132;52.268;5.192;2023-11-21T01:32:25;28.92;;;15.73;;
74626;SDS011;63132;52.268;5.192;2023-11-21T01:34:50;30.33;;;14.77;;
74626;SDS011;63132;52.268;5.192;2023-11-21T01:37:16;29.80;;;14.88;;
74626;SDS011;63132;52.268;5.192;2023-11-21T01:44:34;26.70;;;13.82;;
74626;SDS011;63132;52.268;5.192;2023-11-21T01:47:00;30.42;;;15.15;;
74626;SDS011;63132;52.268;5.192;2023-11-21T01:49:30;27.83;;;15.82;;
74626;SDS011;63132;52.268;5.192;2023-11-21T01:51:59;35.30;;;16.50;;
74626;SDS011;63132;52.268;5.192;2023-11-21T01:54:24;34.63;;;16.50;;
74626;SDS011;63132;52.268;5.192;2023-11-21T01:56:50;29.90;;;16.40;;
74626;SDS011;63132;52.268;5.192;2023-11-21T01:59:17;27.08;;;15.90;;
74626;SDS011;63132;52.268;5.192;2023-11-21T02:01:44;33.25;;;15.45;;
74626;SDS011;63132;52.268;5.192;2023-11-21T02:04:11;37.25;;;16.65;;
74626;SDS011;63132;52.268;5.192;2023-11-21T02:06:37;29.38;;;15.23;;
74626;SDS011;63132;52.268;5.192;2023-11-21T02:09:03;28.83;;;16.20;;
74626;SDS011;63132;52.268;5.192;2023-11-21T02:11:29;29.48;;;14.80;;
74626;SDS011;63132;52.268;5.192;2023-11-21T02:13:55;26.45;;;14.73;;
74626;SDS011;63132;52.268;5.192;2023-11-21T02:16:20;32.08;;;17.23;;
74626;SDS011;63132;52.268;5.192;2023-11-21T02:18:48;24.48;;;14.40;;
74626;SDS011;63132;52.268;5.192;2023-11-21T02:21:16;30.80;;;16.20;;
74626;SDS011;63132;52.268;5.192;2023-11-21T02:23:41;35.58;;;14.75;;
74626;SDS011;63132;52.268;5.192;2023-11-21T02:26:09;35.30;;;16.05;;
74626;SDS011;63132;52.268;5.192;2023-11-21T02:31:01;28.92;;;14.85;;
74626;SDS011;63132;52.268;5.192;2023-11-21T02:33:28;29.88;;;15.07;;
74626;SDS011;63132;52.268;5.192;2023-11-21T02:35:53;27.42;;;15.00;;
74626;SDS011;63132;52.268;5.192;2023-11-21T02:40:45;29.65;;;15.13;;
74626;SDS011;63132;52.268;5.192;2023-11-21T02:43:10;32.53;;;14.43;;
74626;SDS011;63132;52.268;5.192;2023-11-21T02:45:36;31.80;;;15.77;;
74626;SDS011;63132;52.268;5.192;2023-11-21T02:48:01;28.40;;;15.05;;
74626;SDS011;63132;52.268;5.192;2023-11-21T02:50:27;29.85;;;14.30;;
74626;SDS011;63132;52.268;5.192;2023-11-21T02:52:52;28.17;;;14.65;;
74626;SDS011;63132;52.268;5.192;2023-11-21T02:55:18;29.60;;;14.63;;
74626;SDS011;63132;52.268;5.192;2023-11-21T02:57:43;28.05;;;14.75;;
74626;SDS011;63132;52.268;5.192;2023-11-21T03:00:08;26.35;;;14.38;;
74626;SDS011;63132;52.268;5.192;2023-11-21T03:02:39;31.15;;;15.93;;
74626;SDS011;63132;52.268;5.192;2023-11-21T03:05:06;32.85;;;15.05;;
74626;SDS011;63132;52.268;5.192;2023-11-21T03:07:33;26.38;;;15.50;;
74626;SDS011;63132;52.268;5.192;2023-11-21T03:09:59;29.60;;;15.00;;
74626;SDS011;63132;52.268;5.192;2023-11-21T03:12:24;30.67;;;15.13;;
74626;SDS011;63132;52.268;5.192;2023-11-21T03:14:49;25.08;;;14.65;;
74626;SDS011;63132;52.268;5.192;2023-11-21T03:17:15;37.53;;;15.67;;
74626;SDS011;63132;52.268;5.192;2023-11-21T03:19:43;28.05;;;14.55;;
74626;SDS011;63132;52.268;5.192;2023-11-21T03:22:09;32.05;;;15.68;;
74626;SDS011;63132;52.268;5.192;2023-11-21T03:24:34;28.70;;;14.57;;
74626;SDS011;63132;52.268;5.192;2023-11-21T03:27:00;33.07;;;14.90;;
74626;SDS011;63132;52.268;5.192;2023-11-21T03:29:25;30.13;;;14.73;;
74626;SDS011;63132;52.268;5.192;2023-11-21T03:31:51;26.67;;;14.18;;
74626;SDS011;63132;52.268;5.192;2023-11-21T03:34:26;29.85;;;14.82;;
74626;SDS011;63132;52.268;5.192;2023-11-21T03:36:52;34.28;;;15.13;;
74626;SDS011;63132;52.268;5.192;2023-11-21T03:39:21;31.17;;;14.38;;
74626;SDS011;63132;52.268;5.192;2023-11-21T03:41:47;29.33;;;13.60;;
74626;SDS011;63132;52.268;5.192;2023-11-21T03:44:13;32.08;;;14.02;;
74626;SDS011;63132;52.268;5.192;2023-11-21T03:46:38;26.35;;;13.18;;
74626;SDS011;63132;52.268;5.192;2023-11-21T03:49:04;31.45;;;14.00;;
74626;SDS011;63132;52.268;5.192;2023-11-21T03:51:29;24.83;;;13.20;;
74626;SDS011;63132;52.268;5.192;2023-11-21T03:53:55;30.55;;;13.48;;
74626;SDS011;63132;52.268;5.192;2023-11-21T03:56:20;32.92;;;13.30;;
74626;SDS011;63132;52.268;5.192;2023-11-21T03:58:47;25.02;;;13.23;;
74626;SDS011;63132;52.268;5.192;2023-11-21T04:01:19;26.77;;;12.55;;
74626;SDS011;63132;52.268;5.192;2023-11-21T04:03:47;27.45;;;12.65;;
74626;SDS011;63132;52.268;5.192;2023-11-21T04:06:16;29.25;;;12.63;;
74626;SDS011;63132;52.268;5.192;2023-11-21T04:08:45;37.58;;;13.45;;
74626;SDS011;63132;52.268;5.192;2023-11-21T04:11:11;28.10;;;13.73;;
74626;SDS011;63132;52.268;5.192;2023-11-21T04:13:37;32.50;;;13.88;;
74626;SDS011;63132;52.268;5.192;2023-11-21T04:16:04;25.05;;;13.27;;
74626;SDS011;63132;52.268;5.192;2023-11-21T04:18:31;30.23;;;13.00;;
74626;SDS011;63132;52.268;5.192;2023-11-21T04:20:56;29.98;;;12.07;;
74626;SDS011;63132;52.268;5.192;2023-11-21T04:23:22;26.97;;;13.37;;
74626;SDS011;63132;52.268;5.192;2023-11-21T04:25:47;28.02;;;11.98;;
74626;SDS011;63132;52.268;5.192;2023-11-21T04:28:12;21.77;;;12.73;;
74626;SDS011;63132;52.268;5.192;2023-11-21T04:33:18;25.65;;;12.35;;
74626;SDS011;63132;52.268;5.192;2023-11-21T04:35:43;28.00;;;11.93;;
74626;SDS011;63132;52.268;5.192;2023-11-21T04:38:09;23.23;;;11.60;;
74626;SDS011;63132;52.268;5.192;2023-11-21T04:40:34;25.13;;;12.63;;
74626;SDS011;63132;52.268;5.192;2023-11-21T04:43:00;28.63;;;13.48;;
74626;SDS011;63132;52.268;5.192;2023-11-21T04:45:25;26.37;;;12.93;;
74626;SDS011;63132;52.268;5.192;2023-11-21T04:47:50;25.30;;;12.83;;
74626;SDS011;63132;52.268;5.192;2023-11-21T04:50:17;28.73;;;12.45;;
74626;SDS011;63132;52.268;5.192;2023-11-21T04:52:42;31.23;;;13.30;;
74626;SDS011;63132;52.268;5.192;2023-11-21T04:55:08;34.47;;;13.77;;
74626;SDS011;63132;52.268;5.192;2023-11-21T04:57:35;28.50;;;13.85;;
74626;SDS011;63132;52.268;5.192;2023-11-21T05:00:01;29.48;;;13.80;;
74626;SDS011;63132;52.268;5.192;2023-11-21T05:02:30;27.50;;;13.32;;
74626;SDS011;63132;52.268;5.192;2023-11-21T05:04:56;30.63;;;13.32;;
74626;SDS011;63132;52.268;5.192;2023-11-21T05:07:22;24.10;;;11.80;;
74626;SDS011;63132;52.268;5.192;2023-11-21T05:09:47;33.50;;;13.40;;
74626;SDS011;63132;52.268;5.192;2023-11-21T05:12:13;23.33;;;13.32;;
74626;SDS011;63132;52.268;5.192;2023-11-21T05:14:39;31.02;;;12.80;;
74626;SDS011;63132;52.268;5.192;2023-11-21T05:17:04;24.50;;;11.73;;
74626;SDS011;63132;52.268;5.192;2023-11-21T05:19:30;29.15;;;13.40;;
74626;SDS011;63132;52.268;5.192;2023-11-21T05:21:55;25.77;;;12.13;;
74626;SDS011;63132;52.268;5.192;2023-11-21T05:24:20;23.17;;;12.88;;
74626;SDS011;63132;52.268;5.192;2023-11-21T05:26:46;33.43;;;12.10;;
74626;SDS011;63132;52.268;5.192;2023-11-21T05:29:11;23.33;;;12.13;;
74626;SDS011;63132;52.268;5.192;2023-11-21T05:31:36;22.42;;;11.95;;
74626;SDS011;63132;52.268;5.192;2023-11-21T05:34:02;23.13;;;11.65;;
74626;SDS011;63132;52.268;5.192;2023-11-21T05:36:30;19.55;;;10.90;;
74626;SDS011;63132;52.268;5.192;2023-11-21T05:38:55;20.63;;;11.70;;
74626;SDS011;63132;52.268;5.192;2023-11-21T05:41:20;21.00;;;11.00;;
74626;SDS011;63132;52.268;5.192;2023-11-21T05:43:46;24.00;;;12.43;;
74626;SDS011;63132;52.268;5.192;2023-11-21T05:46:11;26.38;;;10.60;;
74626;SDS011;63132;52.268;5.192;2023-11-21T05:48:38;31.05;;;11.82;;
74626;SDS011;63132;52.268;5.192;2023-11-21T05:51:04;21.60;;;11.63;;
74626;SDS011;63132;52.268;5.192;2023-11-21T05:53:31;23.38;;;10.13;;
74626;SDS011;63132;52.268;5.192;2023-11-21T05:55:56;21.88;;;11.43;;
74626;SDS011;63132;52.268;5.192;2023-11-21T05:58:22;20.00;;;11.00;;
74626;SDS011;63132;52.268;5.192;2023-11-21T06:00:47;20.35;;;11.32;;
74626;SDS011;63132;52.268;5.192;2023-11-21T06:03:13;25.25;;;11.75;;
74626;SDS011;63132;52.268;5.192;2023-11-21T06:05:38;26.45;;;12.30;;
74626;SDS011;63132;52.268;5.192;2023-11-21T06:08:03;23.40;;;11.55;;
74626;SDS011;63132;52.268;5.192;2023-11-21T06:10:29;28.20;;;13.73;;
74626;SDS011;63132;52.268;5.192;2023-11-21T06:12:54;25.17;;;13.02;;
74626;SDS011;63132;52.268;5.192;2023-11-21T06:15:19;19.52;;;10.57;;
74626;SDS011;63132;52.268;5.192;2023-11-21T06:17:47;22.63;;;11.43;;
74626;SDS011;63132;52.268;5.192;2023-11-21T06:20:17;25.40;;;9.55;;
74626;SDS011;63132;52.268;5.192;2023-11-21T06:22:43;18.50;;;8.48;;
74626;SDS011;63132;52.268;5.192;2023-11-21T06:25:10;23.60;;;8.75;;
74626;SDS011;63132;52.268;5.192;2023-11-21T06:27:39;21.45;;;8.23;;
74626;SDS011;63132;52.268;5.192;2023-11-21T06:30:05;22.30;;;7.90;;
74626;SDS011;63132;52.268;5.192;2023-11-21T06:32:34;22.65;;;8.35;;
74626;SDS011;63132;52.268;5.192;2023-11-21T06:35:01;25.92;;;8.65;;
74626;SDS011;63132;52.268;5.192;2023-11-21T06:37:27;20.38;;;8.50;;
74626;SDS011;63132;52.268;5.192;2023-11-21T06:39:52;27.40;;;8.95;;
74626;SDS011;63132;52.268;5.192;2023-11-21T06:42:18;30.30;;;8.90;;
74626;SDS011;63132;52.268;5.192;2023-11-21T06:44:47;26.05;;;8.38;;
74626;SDS011;63132;52.268;5.192;2023-11-21T06:49:39;22.67;;;9.23;;
74626;SDS011;63132;52.268;5.192;2023-11-21T06:52:04;22.70;;;9.18;;
74626;SDS011;63132;52.268;5.192;2023-11-21T06:54:33;19.50;;;9.48;;
74626;SDS011;63132;52.268;5.192;2023-11-21T06:56:58;24.42;;;9.27;;
74626;SDS011;63132;52.268;5.192;2023-11-21T06:59:24;25.47;;;9.03;;
74626;SDS011;63132;52.268;5.192;2023-11-21T07:01:49;21.70;;;9.43;;
74626;SDS011;63132;52.268;5.192;2023-11-21T07:04:15;20.70;;;8.38;;
74626;SDS011;63132;52.268;5.192;2023-11-21T07:06:40;31.20;;;8.95;;
74626;SDS011;63132;52.268;5.192;2023-11-21T07:09:06;23.88;;;8.80;;
74626;SDS011;63132;52.268;5.192;2023-11-21T07:11:33;23.27;;;8.60;;
74626;SDS011;63132;52.268;5.192;2023-11-21T07:13:59;20.73;;;7.78;;
74626;SDS011;63132;52.268;5.192;2023-11-21T07:16:24;19.10;;;7.68;;
74626;SDS011;63132;52.268;5.192;2023-11-21T07:18:50;29.20;;;9.38;;
74626;SDS011;63132;52.268;5.192;2023-11-21T07:21:15;20.13;;;7.70;;
74626;SDS011;63132;52.268;5.192;2023-11-21T07:23:41;24.30;;;8.75;;
74626;SDS011;63132;52.268;5.192;2023-11-21T07:26:06;23.77;;;9.00;;
74626;SDS011;63132;52.268;5.192;2023-11-21T07:28:34;25.08;;;9.15;;
74626;SDS011;63132;52.268;5.192;2023-11-21T07:31:00;26.20;;;9.10;;
74626;SDS011;63132;52.268;5.192;2023-11-21T07:33:25;22.85;;;9.07;;
74626;SDS011;63132;52.268;5.192;2023-11-21T07:35:51;33.23;;;9.83;;
74626;SDS011;63132;52.268;5.192;2023-11-21T07:38:16;33.00;;;9.13;;
74626;SDS011;63132;52.268;5.192;2023-11-21T07:40:42;29.92;;;10.48;;
74626;SDS011;63132;52.268;5.192;2023-11-21T07:43:08;26.20;;;8.88;;
74626;SDS011;63132;52.268;5.192;2023-11-21T07:45:34;32.30;;;10.02;;
74626;SDS011;63132;52.268;5.192;2023-11-21T07:47:59;36.20;;;11.00;;
74626;SDS011;63132;52.268;5.192;2023-11-21T07:50:25;33.25;;;9.98;;
74626;SDS011;63132;52.268;5.192;2023-11-21T07:52:51;26.10;;;11.48;;
74626;SDS011;63132;52.268;5.192;2023-11-21T07:55:19;29.92;;;11.18;;
74626;SDS011;63132;52.268;5.192;2023-11-21T07:57:45;33.25;;;10.93;;
74626;SDS011;63132;52.268;5.192;2023-11-21T08:00:11;37.42;;;12.27;;
74626;SDS011;63132;52.268;5.192;2023-11-21T08:02:38;40.05;;;12.40;;
74626;SDS011;63132;52.268;5.192;2023-11-21T08:05:10;33.65;;;11.20;;
74626;SDS011;63132;52.268;5.192;2023-11-21T08:07:36;34.30;;;11.98;;
74626;SDS011;63132;52.268;5.192;2023-11-21T08:10:01;37.40;;;11.30;;
74626;SDS011;63132;52.268;5.192;2023-11-21T08:12:27;32.20;;;9.98;;
74626;SDS011;63132;52.268;5.192;2023-11-21T08:14:52;27.42;;;10.80;;
74626;SDS011;63132;52.268;5.192;2023-11-21T08:17:18;24.55;;;9.57;;
74626;SDS011;63132;52.268;5.192;2023-11-21T08:19:45;29.67;;;10.95;;
74626;SDS011;63132;52.268;5.192;2023-11-21T08:22:14;24.38;;;9.18;;
74626;SDS011;63132;52.268;5.192;2023-11-21T08:24:41;20.50;;;9.20;;
74626;SDS011;63132;52.268;5.192;2023-11-21T08:27:06;23.05;;;7.80;;
74626;SDS011;63132;52.268;5.192;2023-11-21T08:29:32;26.17;;;9.25;;
74626;SDS011;63132;52.268;5.192;2023-11-21T08:31:58;20.58;;;8.93;;
74626;SDS011;63132;52.268;5.192;2023-11-21T08:34:24;25.33;;;8.90;;
74626;SDS011;63132;52.268;5.192;2023-11-21T08:36:50;25.27;;;9.03;;
74626;SDS011;63132;52.268;5.192;2023-11-21T08:39:16;23.45;;;7.47;;
74626;SDS011;63132;52.268;5.192;2023-11-21T08:41:43;16.08;;;7.35;;
74626;SDS011;63132;52.268;5.192;2023-11-21T08:44:09;16.92;;;7.45;;
74626;SDS011;63132;52.268;5.192;2023-11-21T08:46:34;18.90;;;8.83;;
74626;SDS011;63132;52.268;5.192;2023-11-21T08:49:03;15.55;;;7.53;;
74626;SDS011;63132;52.268;5.192;2023-11-21T08:51:28;19.48;;;8.57;;
74626;SDS011;63132;52.268;5.192;2023-11-21T08:53:53;18.30;;;7.32;;
74626;SDS011;63132;52.268;5.192;2023-11-21T08:56:19;20.35;;;7.78;;
74626;SDS011;63132;52.268;5.192;2023-11-21T08:58:45;14.60;;;6.57;;
74626;SDS011;63132;52.268;5.192;2023-11-21T09:01:11;15.48;;;7.30;;
74626;SDS011;63132;52.268;5.192;2023-11-21T09:03:37;14.52;;;6.07;;
74626;SDS011;63132;52.268;5.192;2023-11-21T09:06:02;16.40;;;6.87;;
74626;SDS011;63132;52.268;5.192;2023-11-21T09:08:28;15.57;;;6.72;;
74626;SDS011;63132;52.268;5.192;2023-11-21T09:10:54;14.27;;;6.68;;
74626;SDS011;63132;52.268;5.192;2023-11-21T09:13:19;13.45;;;6.68;;
74626;SDS011;63132;52.268;5.192;2023-11-21T09:15:45;13.63;;;6.53;;
74626;SDS011;63132;52.268;5.192;2023-11-21T09:18:12;16.45;;;6.40;;
74626;SDS011;63132;52.268;5.192;2023-11-21T09:20:38;15.18;;;6.82;;
74626;SDS011;63132;52.268;5.192;2023-11-21T09:23:03;16.10;;;7.83;;
74626;SDS011;63132;52.268;5.192;2023-11-21T09:25:29;15.70;;;7.43;;
74626;SDS011;63132;52.268;5.192;2023-11-21T09:27:54;15.67;;;7.43;;
74626;SDS011;63132;52.268;5.192;2023-11-21T09:30:19;15.40;;;6.83;;
74626;SDS011;63132;52.268;5.192;2023-11-21T09:32:45;16.42;;;6.72;;
74626;SDS011;63132;52.268;5.192;2023-11-21T09:35:10;15.98;;;7.18;;
74626;SDS011;63132;52.268;5.192;2023-11-21T09:37:36;18.98;;;7.70;;
74626;SDS011;63132;52.268;5.192;2023-11-21T09:40:02;14.18;;;7.68;;
74626;SDS011;63132;52.268;5.192;2023-11-21T09:42:30;13.80;;;6.03;;
74626;SDS011;63132;52.268;5.192;2023-11-21T09:47:53;16.20;;;5.93;;
74626;SDS011;63132;52.268;5.192;2023-11-21T09:50:22;13.55;;;6.72;;
74626;SDS011;63132;52.268;5.192;2023-11-21T09:55:17;15.02;;;6.50;;
74626;SDS011;63132;52.268;5.192;2023-11-21T09:57:46;14.73;;;7.45;;
74626;SDS011;63132;52.268;5.192;2023-11-21T10:00:15;15.27;;;7.15;;
74626;SDS011;63132;52.268;5.192;2023-11-21T10:02:43;15.05;;;6.40;;
74626;SDS011;63132;52.268;5.192;2023-11-21T10:05:08;15.43;;;7.13;;
74626;SDS011;63132;52.268;5.192;2023-11-21T10:07:37;14.23;;;6.90;;
74626;SDS011;63132;52.268;5.192;2023-11-21T10:10:05;15.48;;;6.85;;
74626;SDS011;63132;52.268;5.192;2023-11-21T10:12:33;14.05;;;6.35;;
74626;SDS011;63132;52.268;5.192;2023-11-21T10:14:59;16.63;;;7.05;;
74626;SDS011;63132;52.268;5.192;2023-11-21T10:17:28;14.15;;;7.05;;
74626;SDS011;63132;52.268;5.192;2023-11-21T10:20:01;16.55;;;7.45;;
74626;SDS011;63132;52.268;5.192;2023-11-21T10:22:31;17.35;;;7.43;;
74626;SDS011;63132;52.268;5.192;2023-11-21T10:24:56;16.77;;;7.57;;
74626;SDS011;63132;52.268;5.192;2023-11-21T10:27:22;17.47;;;9.03;;
74626;SDS011;63132;52.268;5.192;2023-11-21T10:32:16;18.75;;;9.20;;
74626;SDS011;63132;52.268;5.192;2023-11-21T10:34:41;19.67;;;9.73;;
74626;SDS011;63132;52.268;5.192;2023-11-21T10:37:12;23.53;;;9.73;;
74626;SDS011;63132;52.268;5.192;2023-11-21T10:39:38;22.83;;;10.52;;
74626;SDS011;63132;52.268;5.192;2023-11-21T10:42:04;19.52;;;10.18;;
74626;SDS011;63132;52.268;5.192;2023-11-21T10:44:29;23.42;;;9.63;;
74626;SDS011;63132;52.268;5.192;2023-11-21T10:46:54;25.27;;;9.90;;
74626;SDS011;63132;52.268;5.192;2023-11-21T10:49:24;23.83;;;10.77;;
74626;SDS011;63132;52.268;5.192;2023-11-21T10:54:18;24.05;;;9.82;;
74626;SDS011;63132;52.268;5.192;2023-11-21T10:56:53;23.90;;;10.25;;
74626;SDS011;63132;52.268;5.192;2023-11-21T10:59:22;27.20;;;11.85;;
74626;SDS011;63132;52.268;5.192;2023-11-21T11:01:50;31.02;;;13.45;;
74626;SDS011;63132;52.268;5.192;2023-11-21T11:04:17;30.00;;;14.32;;
74626;SDS011;63132;52.268;5.192;2023-11-21T11:06:44;34.85;;;13.68;;
74626;SDS011;63132;52.268;5.192;2023-11-21T11:09:16;32.38;;;14.23;;
74626;SDS011;63132;52.268;5.192;2023-11-21T11:14:10;30.95;;;12.70;;
74626;SDS011;63132;52.268;5.192;2023-11-21T11:16:37;35.47;;;13.40;;
74626;SDS011;63132;52.268;5.192;2023-11-21T11:19:09;37.90;;;13.50;;
74626;SDS011;63132;52.268;5.192;2023-11-21T11:21:53;28.38;;;13.63;;
74626;SDS011;63132;52.268;5.192;2023-11-21T11:24:49;26.55;;;12.20;;
74626;SDS011;63132;52.268;5.192;2023-11-21T11:30:23;20.75;;;9.02;;
74626;SDS011;63132;52.268;5.192;2023-11-21T11:32:56;21.05;;;9.05;;
74626;SDS011;63132;52.268;5.192;2023-11-21T11:35:45;20.35;;;8.68;;
74626;SDS011;63132;52.268;5.192;2023-11-21T11:38:32;20.02;;;9.20;;
74626;SDS011;63132;52.268;5.192;2023-11-21T11:41:00;18.10;;;7.93;;
74626;SDS011;63132;52.268;5.192;2023-11-21T11:43:30;16.67;;;8.10;;
74626;SDS011;63132;52.268;5.192;2023-11-21T11:46:08;13.20;;;6.65;;
74626;SDS011;63132;52.268;5.192;2023-11-21T11:48:37;14.75;;;7.43;;
74626;SDS011;63132;52.268;5.192;2023-11-21T11:51:11;12.98;;;6.68;;
74626;SDS011;63132;52.268;5.192;2023-11-21T11:53:45;15.90;;;7.15;;
74626;SDS011;63132;52.268;5.192;2023-11-21T11:56:31;14.52;;;6.90;;
74626;SDS011;63132;52.268;5.192;2023-11-21T11:58:59;12.43;;;6.80;;
74626;SDS011;63132;52.268;5.192;2023-11-21T12:01:33;15.20;;;7.40;;
74626;SDS011;63132;52.268;5.192;2023-11-21T12:06:42;18.70;;;9.30;;
74626;SDS011;63132;52.268;5.192;2023-11-21T12:09:18;20.52;;;8.85;;
74626;SDS011;63132;52.268;5.192;2023-11-21T12:11:45;30.08;;;12.13;;
74626;SDS011;63132;52.268;5.192;2023-11-21T12:19:03;30.67;;;12.70;;
74626;SDS011;63132;52.268;5.192;2023-11-21T12:21:29;30.42;;;12.00;;
74626;SDS011;63132;52.268;5.192;2023-11-21T12:23:55;33.30;;;11.52;;
74626;SDS011;63132;52.268;5.192;2023-11-21T12:26:22;25.97;;;11.13;;
74626;SDS011;63132;52.268;5.192;2023-11-21T12:28:51;30.90;;;12.23;;
74626;SDS011;63132;52.268;5.192;2023-11-21T12:31:23;31.90;;;12.63;;
74626;SDS011;63132;52.268;5.192;2023-11-21T12:33:49;34.30;;;12.57;;
74626;SDS011;63132;52.268;5.192;2023-11-21T12:36:15;33.42;;;13.02;;
74626;SDS011;63132;52.268;5.192;2023-11-21T12:38:41;32.10;;;13.80;;
74626;SDS011;63132;52.268;5.192;2023-11-21T12:41:07;34.40;;;14.35;;
74626;SDS011;63132;52.268;5.192;2023-11-21T12:43:35;34.85;;;14.68;;
74626;SDS011;63132;52.268;5.192;2023-11-21T12:46:07;41.05;;;15.32;;
74626;SDS011;63132;52.268;5.192;2023-11-21T12:48:37;37.20;;;14.45;;
74626;SDS011;63132;52.268;5.192;2023-11-21T12:51:04;39.10;;;15.60;;
74626;SDS011;63132;52.268;5.192;2023-11-21T12:53:31;42.47;;;16.70;;
74626;SDS011;63132;52.268;5.192;2023-11-21T12:56:02;41.03;;;16.33;;
74626;SDS011;63132;52.268;5.192;2023-11-21T12:58:31;38.25;;;14.68;;
74626;SDS011;63132;52.268;5.192;2023-11-21T13:00:58;35.83;;;15.60;;
74626;SDS011;63132;52.268;5.192;2023-11-21T13:03:24;40.03;;;16.15;;
74626;SDS011;63132;52.268;5.192;2023-11-21T13:05:51;34.60;;;14.40;;
74626;SDS011;63132;52.268;5.192;2023-11-21T13:08:22;33.53;;;13.80;;
74626;SDS011;63132;52.268;5.192;2023-11-21T13:10:49;34.80;;;14.52;;
74626;SDS011;63132;52.268;5.192;2023-11-21T13:13:16;33.17;;;15.07;;
74626;SDS011;63132;52.268;5.192;2023-11-21T13:18:21;35.38;;;13.57;;
74626;SDS011;63132;52.268;5.192;2023-11-21T13:20:48;32.42;;;14.27;;
74626;SDS011;63132;52.268;5.192;2023-11-21T13:23:14;32.40;;;13.68;;
74626;SDS011;63132;52.268;5.192;2023-11-21T13:25:41;32.88;;;14.13;;
74626;SDS011;63132;52.268;5.192;2023-11-21T13:28:07;30.25;;;13.27;;
74626;SDS011;63132;52.268;5.192;2023-11-21T13:30:34;33.20;;;13.48;;
74626;SDS011;63132;52.268;5.192;2023-11-21T13:33:00;30.77;;;13.45;;
74626;SDS011;63132;52.268;5.192;2023-11-21T13:35:30;32.78;;;14.38;;
74626;SDS011;63132;52.268;5.192;2023-11-21T13:37:57;31.45;;;13.88;;
74626;SDS011;63132;52.268;5.192;2023-11-21T13:40:29;35.80;;;14.35;;
74626;SDS011;63132;52.268;5.192;2023-11-21T13:42:55;35.50;;;15.13;;
74626;SDS011;63132;52.268;5.192;2023-11-21T13:45:24;38.63;;;15.77;;
74626;SDS011;63132;52.268;5.192;2023-11-21T13:47:51;31.00;;;14.30;;
74626;SDS011;63132;52.268;5.192;2023-11-21T13:50:20;35.30;;;15.65;;
74626;SDS011;63132;52.268;5.192;2023-11-21T13:52:49;31.95;;;14.13;;
74626;SDS011;63132;52.268;5.192;2023-11-21T13:55:16;32.58;;;14.07;;
74626;SDS011;63132;52.268;5.192;2023-11-21T13:57:42;29.60;;;13.13;;
74626;SDS011;63132;52.268;5.192;2023-11-21T14:00:14;26.48;;;12.82;;
74626;SDS011;63132;52.268;5.192;2023-11-21T14:03:00;26.63;;;12.65;;
74626;SDS011;63132;52.268;5.192;2023-11-21T14:05:26;23.38;;;11.27;;
74626;SDS011;63132;52.268;5.192;2023-11-21T14:07:54;27.85;;;11.15;;
74626;SDS011;63132;52.268;5.192;2023-11-21T14:10:21;23.88;;;12.02;;
74626;SDS011;63132;52.268;5.192;2023-11-21T14:12:49;20.30;;;10.68;;
74626;SDS011;63132;52.268;5.192;2023-11-21T14:15:15;22.92;;;11.73;;
74626;SDS011;63132;52.268;5.192;2023-11-21T14:17:44;22.75;;;10.88;;
74626;SDS011;63132;52.268;5.192;2023-11-21T14:20:09;20.55;;;10.10;;
74626;SDS011;63132;52.268;5.192;2023-11-21T14:22:40;19.42;;;10.23;;
74626;SDS011;63132;52.268;5.192;2023-11-21T14:25:06;19.17;;;9.60;;
74626;SDS011;63132;52.268;5.192;2023-11-21T14:27:32;18.20;;;10.25;;
74626;SDS011;63132;52.268;5.192;2023-11-21T14:29:58;19.73;;;10.30;;
74626;SDS011;63132;52.268;5.192;2023-11-21T14:32:24;19.65;;;10.35;;
74626;SDS011;63132;52.268;5.192;2023-11-21T14:34:51;17.73;;;9.30;;
74626;SDS011;63132;52.268;5.192;2023-11-21T14:37:17;20.23;;;9.98;;
74626;SDS011;63132;52.268;5.192;2023-11-21T14:39:42;19.77;;;10.07;;
74626;SDS011;63132;52.268;5.192;2023-11-21T14:42:11;21.80;;;11.68;;
74626;SDS011;63132;52.268;5.192;2023-11-21T14:44:36;18.42;;;9.85;;
74626;SDS011;63132;52.268;5.192;2023-11-21T14:47:06;19.30;;;10.77;;
74626;SDS011;63132;52.268;5.192;2023-11-21T14:49:40;16.33;;;9.70;;
74626;SDS011;63132;52.268;5.192;2023-11-21T14:52:21;20.23;;;10.93;;
74626;SDS011;63132;52.268;5.192;2023-11-21T14:55:05;18.50;;;10.00;;
74626;SDS011;63132;52.268;5.192;2023-11-21T14:57:56;19.65;;;11.65;;
74626;SDS011;63132;52.268;5.192;2023-11-21T15:00:23;19.30;;;9.77;;
74626;SDS011;63132;52.268;5.192;2023-11-21T15:03:01;17.00;;;9.88;;
74626;SDS011;63132;52.268;5.192;2023-11-21T15:05:27;18.65;;;10.30;;
74626;SDS011;63132;52.268;5.192;2023-11-21T15:10:21;17.88;;;10.20;;